createdAt,value
2022-08-02T00:01:37.465Z,2.13
2022-08-02T00:04:22.781Z,1.70
2022-08-02T00:07:08.514Z,3.38
2022-08-02T00:09:54.057Z,2.63
2022-08-02T00:12:39.973Z,2.40
2022-08-02T00:15:25.385Z,3.42
2022-08-02T00:18:11.270Z,4.97
2022-08-02T00:20:56.885Z,4.25
2022-08-02T00:24:05.004Z,4.65
2022-08-02T00:26:48.004Z,4.65
2022-08-02T00:29:33.580Z,5.43
2022-08-02T00:32:18.917Z,4.97
2022-08-02T00:35:05.062Z,3.33
2022-08-02T00:37:50.429Z,2.78
2022-08-02T00:40:36.025Z,6.28
2022-08-02T00:43:21.595Z,3.88
2022-08-02T00:46:06.969Z,2.95
2022-08-02T00:48:52.546Z,3.97
2022-08-02T00:51:39.732Z,2.78
2022-08-02T00:54:25.008Z,3.15
2022-08-02T00:57:10.693Z,3.63
2022-08-02T00:59:55.717Z,2.75
2022-08-02T01:02:42.024Z,4.63
2022-08-02T01:05:28.178Z,3.13
2022-08-02T01:08:13.428Z,3.47
2022-08-02T01:10:59.146Z,2.83
2022-08-02T01:13:44.711Z,3.80
2022-08-02T01:16:33.442Z,3.30
2022-08-02T01:19:31.219Z,4.53
2022-08-02T01:22:34.537Z,2.72
2022-08-02T01:25:43.678Z,4.32
2022-08-02T01:28:36.309Z,3.10
2022-08-02T01:31:44.496Z,4.75
2022-08-02T01:34:50.944Z,4.72
2022-08-02T01:37:43.268Z,4.45
2022-08-02T01:43:17.317Z,5.10
2022-08-02T01:46:05.044Z,3.22
2022-08-02T01:48:53.444Z,3.25
2022-08-02T01:52:00.353Z,3.63
2022-08-02T01:54:49.681Z,3.83
2022-08-02T01:57:41.816Z,3.75
2022-08-02T02:00:31.786Z,3.60
2022-08-02T02:03:21.969Z,4.50
2022-08-02T02:06:09.877Z,4.85
2022-08-02T02:08:56.481Z,5.15
2022-08-02T02:12:11.861Z,3.97
2022-08-02T02:14:53.494Z,4.05
2022-08-02T02:17:57.086Z,2.58
2022-08-02T02:20:49.301Z,3.20
2022-08-02T02:23:35.663Z,3.53
2022-08-02T02:26:31.505Z,2.95
2022-08-02T02:29:21.896Z,4.15
2022-08-02T02:32:07.668Z,2.45
2022-08-02T02:34:54.065Z,3.20
2022-08-02T02:37:41.250Z,2.65
2022-08-02T02:40:28.799Z,3.10
2022-08-02T02:43:15.560Z,2.42
2022-08-02T02:46:05.084Z,2.78
2022-08-02T02:48:52.106Z,3.42
2022-08-02T02:51:40.613Z,3.17
2022-08-02T02:54:34.283Z,3.38
2022-08-02T02:57:21.935Z,5.00
2022-08-02T03:00:12.799Z,3.85
2022-08-02T03:02:58.192Z,3.80
2022-08-02T03:05:43.502Z,2.78
2022-08-02T03:08:29.477Z,4.47
2022-08-02T03:11:15.793Z,3.80
2022-08-02T03:14:03.155Z,3.28
2022-08-02T03:16:50.427Z,2.83
2022-08-02T03:19:35.819Z,4.90
2022-08-02T03:22:21.303Z,2.20
2022-08-02T03:25:08.876Z,3.58
2022-08-02T03:27:54.208Z,2.50
2022-08-02T03:30:39.565Z,4.05
2022-08-02T03:33:26.586Z,3.05
2022-08-02T03:36:18.022Z,3.08
2022-08-02T03:39:04.208Z,2.88
2022-08-02T03:41:50.164Z,3.70
2022-08-02T03:44:39.385Z,2.20
2022-08-02T03:47:25.929Z,2.50
2022-08-02T03:50:13.436Z,3.20
2022-08-02T03:52:59.857Z,3.10
2022-08-02T03:55:45.374Z,3.75
2022-08-02T03:58:30.793Z,4.50
2022-08-02T04:01:16.503Z,2.90
2022-08-02T04:04:02.362Z,2.85
2022-08-02T04:06:48.181Z,2.80
2022-08-02T04:09:33.713Z,1.95
2022-08-02T04:12:18.966Z,1.95
2022-08-02T04:15:07.011Z,2.58
2022-08-02T04:17:56.964Z,2.20
2022-08-02T04:20:44.444Z,2.30
2022-08-02T04:23:32.965Z,3.38
2022-08-02T04:26:26.819Z,1.90
2022-08-02T04:29:14.835Z,2.75
2022-08-02T04:32:00.866Z,3.13
2022-08-02T04:35:11.421Z,3.55
2022-08-02T04:38:05.494Z,3.40
2022-08-02T04:40:55.948Z,2.00
2022-08-02T04:43:41.486Z,3.38
2022-08-02T04:46:26.877Z,2.70
2022-08-02T04:49:12.538Z,3.63
2022-08-02T04:51:58.097Z,3.25
2022-08-02T04:54:43.734Z,2.75
2022-08-02T04:57:52.585Z,2.42
2022-08-02T05:00:38.888Z,3.50
2022-08-02T05:03:24.434Z,4.00
2022-08-02T05:06:19.384Z,2.42
2022-08-02T05:09:05.212Z,2.65
2022-08-02T05:11:53.310Z,2.88
2022-08-02T05:14:40.364Z,2.95
2022-08-02T05:17:25.835Z,3.30
2022-08-02T05:20:13.361Z,1.77
2022-08-02T05:22:58.665Z,3.15
2022-08-02T05:25:44.005Z,4.07
2022-08-02T05:28:29.933Z,2.08
2022-08-02T05:31:17.172Z,2.63
2022-08-02T05:34:02.731Z,3.25
2022-08-02T05:36:48.216Z,3.55
2022-08-02T05:39:33.579Z,2.28
2022-08-02T05:42:19.151Z,2.80
2022-08-02T05:45:05.627Z,4.03
2022-08-02T05:47:51.884Z,3.70
2022-08-02T05:50:44.248Z,3.95
2022-08-02T05:53:32.421Z,2.03
2022-08-02T05:56:37.298Z,2.58
2022-08-02T05:59:36.534Z,3.08
2022-08-02T06:02:54.999Z,2.33
2022-08-02T06:05:41.727Z,2.35
2022-08-02T06:08:39.347Z,2.47
2022-08-02T06:11:33.613Z,2.85
2022-08-02T06:14:19.701Z,2.35
2022-08-02T06:17:05.506Z,2.63
2022-08-02T06:19:53.649Z,2.85
2022-08-02T06:22:42.985Z,2.38
2022-08-02T06:25:50.423Z,3.38
2022-08-02T06:28:38.188Z,2.97
2022-08-02T06:31:23.688Z,3.28
2022-08-02T06:34:09.345Z,2.22
2022-08-02T06:37:07.601Z,3.10
2022-08-02T06:40:06.942Z,2.42
2022-08-02T06:43:11.452Z,3.10
2022-08-02T06:45:56.790Z,3.05
2022-08-02T06:49:03.157Z,4.70
2022-08-02T06:51:48.440Z,3.13
2022-08-02T06:54:36.053Z,2.33
2022-08-02T06:57:21.551Z,3.22
2022-08-02T07:00:09.519Z,2.85
2022-08-02T07:02:55.029Z,3.17
2022-08-02T07:05:41.726Z,2.78
2022-08-02T07:08:31.757Z,3.63
2022-08-02T07:11:19.233Z,3.35
2022-08-02T07:14:04.648Z,2.58
2022-08-02T07:16:50.188Z,3.13
2022-08-02T07:19:37.609Z,2.83
2022-08-02T07:22:24.398Z,2.28
2022-08-02T07:25:10.613Z,2.65
2022-08-02T07:27:56.561Z,2.67
2022-08-02T07:30:42.765Z,2.60
2022-08-02T07:33:38.687Z,2.00
2022-08-02T07:36:25.521Z,2.42
2022-08-02T07:39:11.229Z,3.80
2022-08-02T07:41:57.035Z,3.42
2022-08-02T07:44:45.105Z,3.63
2022-08-02T07:47:32.636Z,2.40
2022-08-02T07:50:19.542Z,2.47
2022-08-02T07:53:04.922Z,2.55
2022-08-02T07:55:51.203Z,2.28
2022-08-02T07:58:36.320Z,3.95
2022-08-02T08:01:22.062Z,2.85
2022-08-02T08:04:07.694Z,3.00
2022-08-02T08:06:54.018Z,3.88
2022-08-02T08:09:41.817Z,3.03
2022-08-02T08:12:28.026Z,2.78
2022-08-02T08:15:13.601Z,2.78
2022-08-02T08:17:58.852Z,2.65
2022-08-02T08:20:44.333Z,3.30
2022-08-02T08:23:29.848Z,4.45
2022-08-02T08:26:16.157Z,3.15
2022-08-02T08:29:01.884Z,3.30
2022-08-02T08:31:48.006Z,2.92
2022-08-02T08:34:34.811Z,4.22
2022-08-02T08:37:20.128Z,3.85
2022-08-02T08:40:06.976Z,3.67
2022-08-02T08:42:52.943Z,3.80
2022-08-02T08:45:38.466Z,4.07
2022-08-02T08:48:31.062Z,4.28
2022-08-02T08:51:21.129Z,4.10
2022-08-02T08:54:09.864Z,3.70
2022-08-02T08:56:56.054Z,3.33
2022-08-02T08:59:41.367Z,3.28
2022-08-02T09:02:28.501Z,5.28
2022-08-02T09:05:16.646Z,3.90
2022-08-02T09:08:01.919Z,4.80
2022-08-02T14:24:33.881Z,3.75
2022-08-02T14:27:19.422Z,5.90
2022-08-02T14:30:05.275Z,3.47
2022-08-02T14:32:50.897Z,4.07
2022-08-02T14:35:36.285Z,5.40
2022-08-02T14:38:23.247Z,4.70
2022-08-02T14:41:08.560Z,5.20
2022-08-02T14:44:06.178Z,9.32
2022-08-02T14:46:52.724Z,6.70
2022-08-02T14:49:42.326Z,7.68
2022-08-02T14:52:31.315Z,6.10
2022-08-02T14:55:17.463Z,5.38
2022-08-02T14:58:02.800Z,6.50
2022-08-02T15:00:48.269Z,4.35
2022-08-02T15:03:43.376Z,6.20
2022-08-02T15:06:32.813Z,5.32
2022-08-02T15:09:18.110Z,3.90
2022-08-02T15:12:05.683Z,4.85
2022-08-02T15:14:52.316Z,4.05
2022-08-02T15:17:37.754Z,5.40
2022-08-02T15:20:26.132Z,5.05
2022-08-02T15:23:11.849Z,7.13
2022-08-02T15:25:58.755Z,4.10
2022-08-02T15:28:44.224Z,4.07
2022-08-02T15:31:33.379Z,3.95
2022-08-02T15:34:19.179Z,3.65
2022-08-02T15:37:04.909Z,5.13
2022-08-02T15:39:49.963Z,6.55
2022-08-02T15:42:35.566Z,3.63
2022-08-02T15:45:20.677Z,5.30
2022-08-02T15:48:07.514Z,6.38
2022-08-02T15:50:52.649Z,4.20
2022-08-02T15:53:38.093Z,2.85
2022-08-02T15:56:24.353Z,3.83
2022-08-02T15:59:10.090Z,6.60
2022-08-02T16:01:55.182Z,3.40
2022-08-02T16:04:41.378Z,5.05
2022-08-02T16:07:27.769Z,3.42
2022-08-02T16:10:14.186Z,4.40
2022-08-02T16:13:19.132Z,4.18
2022-08-02T16:16:04.948Z,5.00
2022-08-02T16:18:50.427Z,5.10
2022-08-02T16:21:35.777Z,6.70
2022-08-02T16:24:21.702Z,4.80
2022-08-02T16:27:08.538Z,5.85
2022-08-02T16:29:54.527Z,7.63
2022-08-02T16:32:40.273Z,5.28
2022-08-02T16:35:25.471Z,7.22
2022-08-02T16:38:11.075Z,4.22
2022-08-02T16:41:01.185Z,8.25
2022-08-02T16:43:47.273Z,6.45
2022-08-02T16:46:32.838Z,6.53
2022-08-02T16:50:06.696Z,6.18
2022-08-02T16:52:23.900Z,8.02
2022-08-02T16:55:11.422Z,7.00
2022-08-02T16:57:57.077Z,6.47
2022-08-02T17:00:46.496Z,5.88
2022-08-02T17:03:56.507Z,5.75
2022-08-02T17:06:38.944Z,7.43
2022-08-02T17:10:02.989Z,5.85
2022-08-02T17:12:39.572Z,6.30
2022-08-02T17:16:07.774Z,9.43
2022-08-02T17:18:30.555Z,8.27
2022-08-02T17:21:15.941Z,7.30
2022-08-02T17:24:08.594Z,5.93
2022-08-02T17:26:54.140Z,7.22
2022-08-02T17:29:42.078Z,7.47
2022-08-02T17:32:29.291Z,7.80
2022-08-02T17:35:16.507Z,8.70
2022-08-02T17:38:02.048Z,7.75
2022-08-02T17:40:50.900Z,8.77
2022-08-02T17:43:39.537Z,7.93
2022-08-02T17:46:26.440Z,8.60
2022-08-02T17:49:16.433Z,5.97
2022-08-02T17:52:15.786Z,3.58
2022-08-02T17:55:10.514Z,5.43
2022-08-02T17:57:58.470Z,7.88
2022-08-02T18:00:45.075Z,4.55
2022-08-02T18:03:30.713Z,3.30
2022-08-02T18:06:17.020Z,3.35
2022-08-02T18:09:05.479Z,3.45
2022-08-02T18:11:53.376Z,2.55
2022-08-02T18:17:44.655Z,4.93
2022-08-02T18:20:30.277Z,3.55
2022-08-02T18:23:15.327Z,4.28
2022-08-02T18:26:02.234Z,4.55
2022-08-02T18:28:47.757Z,4.25
2022-08-02T18:31:39.260Z,4.57
2022-08-02T18:34:25.301Z,5.47
2022-08-02T18:37:10.687Z,5.97
2022-08-02T18:39:55.998Z,3.85
2022-08-02T18:42:41.679Z,3.05
2022-08-02T18:46:04.505Z,4.05
2022-08-02T18:48:32.669Z,3.58
2022-08-02T18:51:18.824Z,2.90
2022-08-02T18:54:04.873Z,4.85
2022-08-02T18:56:50.487Z,2.20
2022-08-02T18:59:37.592Z,4.32
2022-08-02T19:02:24.926Z,2.67
2022-08-02T19:05:13.280Z,4.32
2022-08-02T19:08:00.982Z,4.30
2022-08-02T19:10:49.431Z,3.20
2022-08-02T19:13:40.747Z,3.53
2022-08-02T19:16:36.660Z,5.10
2022-08-02T19:19:22.519Z,4.15
2022-08-02T19:22:17.617Z,3.55
2022-08-02T19:25:05.837Z,2.65
2022-08-02T19:27:55.120Z,5.35
2022-08-02T19:30:42.992Z,2.70
2022-08-02T19:34:04.442Z,4.43
2022-08-02T19:36:35.106Z,4.95
2022-08-02T19:39:20.603Z,2.72
2022-08-02T19:42:08.527Z,2.25
2022-08-02T19:44:54.578Z,3.97
2022-08-02T19:47:40.926Z,5.70
2022-08-02T19:50:40.358Z,4.07
2022-08-02T19:53:48.804Z,3.60
2022-08-02T19:56:34.517Z,3.50
2022-08-02T19:59:20.190Z,2.38
2022-08-02T20:02:06.567Z,3.17
2022-08-02T20:04:53.129Z,2.90
2022-08-02T20:07:54.251Z,3.85
2022-08-02T20:10:42.248Z,2.83
2022-08-02T20:13:34.639Z,4.03
2022-08-02T20:16:36.247Z,3.10
2022-08-02T20:19:22.852Z,3.10
2022-08-02T20:22:08.566Z,3.20
2022-08-02T20:24:54.011Z,2.53
2022-08-02T20:27:39.493Z,2.15
2022-08-02T20:30:39.939Z,3.05
2022-08-02T20:33:24.868Z,2.63
2022-08-02T20:36:10.365Z,2.15
2022-08-02T20:38:55.908Z,3.45
2022-08-02T20:41:45.772Z,2.97
2022-08-02T20:44:34.396Z,3.05
2022-08-02T20:47:20.085Z,2.92
2022-08-02T20:50:32.685Z,2.35
2022-08-02T20:53:25.369Z,2.42
2022-08-02T20:56:14.000Z,2.72
2022-08-02T20:59:04.027Z,2.28
2022-08-02T21:02:01.171Z,2.60
2022-08-02T21:04:46.507Z,4.18
2022-08-02T21:07:31.676Z,3.17
2022-08-02T21:10:17.811Z,2.60
2022-08-02T21:13:22.230Z,3.30
2022-08-02T21:16:10.346Z,2.97
2022-08-02T21:19:00.168Z,3.38
2022-08-02T21:21:46.107Z,2.65
2022-08-02T21:24:31.458Z,3.80
2022-08-02T21:27:51.454Z,4.75
2022-08-02T21:30:24.152Z,2.65
2022-08-02T21:33:23.106Z,2.28
2022-08-02T21:36:09.191Z,2.25
2022-08-02T21:38:57.873Z,3.33
2022-08-02T21:41:46.331Z,2.63
2022-08-02T21:44:32.964Z,1.88
2022-08-02T21:47:27.310Z,3.83
2022-08-02T21:50:16.446Z,3.10
2022-08-02T21:53:01.941Z,2.15
2022-08-02T21:56:01.159Z,4.95
2022-08-02T21:58:48.040Z,3.90
2022-08-02T22:01:35.475Z,4.05
2022-08-02T22:04:21.873Z,3.70
2022-08-02T22:07:07.239Z,5.20
2022-08-02T22:09:53.287Z,3.70
2022-08-02T22:12:38.581Z,2.80
2022-08-02T22:15:25.809Z,4.15
2022-08-02T22:18:27.070Z,3.40
2022-08-02T22:21:16.808Z,3.22
2022-08-02T22:24:02.767Z,3.25
2022-08-02T22:26:47.849Z,4.45
2022-08-02T22:29:33.671Z,2.40
2022-08-02T22:32:40.104Z,2.50
2022-08-02T22:35:25.376Z,3.28
2022-08-02T22:38:15.320Z,4.07
2022-08-02T22:41:03.226Z,4.00
2022-08-02T22:43:49.378Z,2.45
2022-08-02T22:46:35.254Z,4.22
2022-08-02T22:49:38.025Z,4.35
2022-08-02T22:52:27.748Z,2.10
2022-08-02T22:55:12.749Z,2.10
2022-08-02T22:57:59.501Z,2.30
2022-08-02T22:58:43.502Z,4.32
2022-08-02T23:00:45.316Z,3.30
2022-08-02T23:03:31.105Z,2.72
2022-08-02T23:06:19.093Z,3.45
2022-08-02T23:11:54.133Z,4.18
2022-08-02T23:14:39.774Z,2.67
2022-08-02T23:17:43.620Z,3.38
2022-08-02T23:20:29.103Z,3.33
2022-08-02T23:23:14.490Z,3.83
2022-08-02T23:26:00.697Z,3.25
2022-08-02T23:28:45.751Z,5.07
2022-08-02T23:31:38.331Z,3.67
2022-08-02T23:34:24.144Z,4.82
2022-08-02T23:37:10.047Z,3.88
2022-08-02T23:39:55.302Z,4.25
2022-08-02T23:42:40.808Z,3.65
2022-08-02T23:45:26.123Z,5.28
2022-08-02T23:48:21.749Z,3.08
2022-08-02T23:51:07.175Z,4.35
2022-08-02T23:53:52.903Z,2.53
2022-08-02T23:56:38.843Z,3.72
2022-08-02T23:59:24.756Z,2.88
